sensor_id;sensor_type;location;lat;lon;timestamp;temperature;humidity
27567;DHT22;15006;48.584;9.186;2022-12-18T00:01:24;-14.40;90.00
27567;DHT22;15006;48.584;9.186;2022-12-18T00:03:56;-14.50;90.10
27567;DHT22;15006;48.584;9.186;2022-12-18T00:06:27;-14.60;90.30
27567;DHT22;15006;48.584;9.186;2022-12-18T00:09:02;-14.60;90.50
27567;DHT22;15006;48.584;9.186;2022-12-18T00:11:38;-14.60;90.60
27567;DHT22;15006;48.584;9.186;2022-12-18T00:14:05;-14.60;90.70
27567;DHT22;15006;48.584;9.186;2022-12-18T00:16:32;-14.60;90.80
27567;DHT22;15006;48.584;9.186;2022-12-18T00:19:02;-14.70;90.70
27567;DHT22;15006;48.584;9.186;2022-12-18T00:21:33;-14.70;90.60
27567;DHT22;15006;48.584;9.186;2022-12-18T00:24:01;-14.70;90.60
27567;DHT22;15006;48.584;9.186;2022-12-18T00:26:31;-14.70;90.60
27567;DHT22;15006;48.584;9.186;2022-12-18T00:29:11;-14.80;90.60
27567;DHT22;15006;48.584;9.186;2022-12-18T00:31:42;-14.80;90.80
27567;DHT22;15006;48.584;9.186;2022-12-18T00:34:12;-14.80;90.80
27567;DHT22;15006;48.584;9.186;2022-12-18T00:36:41;-14.80;90.70
27567;DHT22;15006;48.584;9.186;2022-12-18T00:39:11;-14.80;90.70
27567;DHT22;15006;48.584;9.186;2022-12-18T00:41:39;-14.80;90.70
27567;DHT22;15006;48.584;9.186;2022-12-18T00:44:29;-14.80;90.70
27567;DHT22;15006;48.584;9.186;2022-12-18T00:46:57;-14.80;90.60
27567;DHT22;15006;48.584;9.186;2022-12-18T00:49:24;-14.90;90.40
27567;DHT22;15006;48.584;9.186;2022-12-18T00:51:50;-14.90;90.20
27567;DHT22;15006;48.584;9.186;2022-12-18T00:54:17;-14.90;89.80
27567;DHT22;15006;48.584;9.186;2022-12-18T00:56:43;-15.00;89.30
27567;DHT22;15006;48.584;9.186;2022-12-18T00:59:10;-15.10;88.90
27567;DHT22;15006;48.584;9.186;2022-12-18T01:01:37;-15.10;88.80
27567;DHT22;15006;48.584;9.186;2022-12-18T01:04:04;-15.20;88.70
27567;DHT22;15006;48.584;9.186;2022-12-18T01:06:32;-15.20;88.60
27567;DHT22;15006;48.584;9.186;2022-12-18T01:08:58;-15.30;88.50
27567;DHT22;15006;48.584;9.186;2022-12-18T01:11:25;-15.40;88.60
27567;DHT22;15006;48.584;9.186;2022-12-18T01:13:52;-15.40;88.60
27567;DHT22;15006;48.584;9.186;2022-12-18T01:16:19;-15.40;88.50
27567;DHT22;15006;48.584;9.186;2022-12-18T01:18:46;-15.50;88.40
27567;DHT22;15006;48.584;9.186;2022-12-18T01:21:14;-15.50;88.60
27567;DHT22;15006;48.584;9.186;2022-12-18T01:23:44;-15.60;88.60
27567;DHT22;15006;48.584;9.186;2022-12-18T01:26:15;-15.60;88.80
27567;DHT22;15006;48.584;9.186;2022-12-18T01:28:42;-15.60;89.20
27567;DHT22;15006;48.584;9.186;2022-12-18T01:31:14;-15.60;89.40
27567;DHT22;15006;48.584;9.186;2022-12-18T01:33:41;-15.70;89.50
27567;DHT22;15006;48.584;9.186;2022-12-18T01:36:08;-15.70;89.90
27567;DHT22;15006;48.584;9.186;2022-12-18T01:38:39;-15.70;90.10
27567;DHT22;15006;48.584;9.186;2022-12-18T01:41:05;-15.70;90.30
27567;DHT22;15006;48.584;9.186;2022-12-18T01:43:48;-15.70;90.50
27567;DHT22;15006;48.584;9.186;2022-12-18T01:46:24;-15.70;90.70
27567;DHT22;15006;48.584;9.186;2022-12-18T01:48:58;-15.60;90.80
27567;DHT22;15006;48.584;9.186;2022-12-18T01:51:27;-15.60;90.90
27567;DHT22;15006;48.584;9.186;2022-12-18T01:53:54;-15.60;91.10
27567;DHT22;15006;48.584;9.186;2022-12-18T01:56:21;-15.50;91.30
27567;DHT22;15006;48.584;9.186;2022-12-18T02:01:30;-15.40;91.60
27567;DHT22;15006;48.584;9.186;2022-12-18T02:04:21;-15.30;91.80
27567;DHT22;15006;48.584;9.186;2022-12-18T02:09:56;-15.10;92.30
27567;DHT22;15006;48.584;9.186;2022-12-18T02:12:25;-15.00;92.50
27567;DHT22;15006;48.584;9.186;2022-12-18T02:15:09;-15.00;92.50
27567;DHT22;15006;48.584;9.186;2022-12-18T02:17:45;-14.90;92.60
27567;DHT22;15006;48.584;9.186;2022-12-18T02:20:32;-14.80;92.50
27567;DHT22;15006;48.584;9.186;2022-12-18T02:23:42;-14.70;92.50
27567;DHT22;15006;48.584;9.186;2022-12-18T02:26:38;-14.60;92.40
27567;DHT22;15006;48.584;9.186;2022-12-18T02:29:21;-14.50;92.40
27567;DHT22;15006;48.584;9.186;2022-12-18T02:31:54;-14.50;92.30
27567;DHT22;15006;48.584;9.186;2022-12-18T02:34:26;-14.40;92.10
27567;DHT22;15006;48.584;9.186;2022-12-18T02:36:55;-14.40;91.80
27567;DHT22;15006;48.584;9.186;2022-12-18T02:39:25;-14.40;91.60
27567;DHT22;15006;48.584;9.186;2022-12-18T02:41:52;-14.40;91.40
27567;DHT22;15006;48.584;9.186;2022-12-18T02:44:18;-14.40;91.40
27567;DHT22;15006;48.584;9.186;2022-12-18T02:46:51;-14.40;91.30
27567;DHT22;15006;48.584;9.186;2022-12-18T02:49:44;-14.40;91.30
27567;DHT22;15006;48.584;9.186;2022-12-18T02:52:45;-14.40;91.20
27567;DHT22;15006;48.584;9.186;2022-12-18T03:01:15;-14.40;91.10
27567;DHT22;15006;48.584;9.186;2022-12-18T03:03:52;-14.40;91.20
27567;DHT22;15006;48.584;9.186;2022-12-18T03:06:25;-14.40;91.10
27567;DHT22;15006;48.584;9.186;2022-12-18T03:09:06;-14.40;91.00
27567;DHT22;15006;48.584;9.186;2022-12-18T03:11:39;-14.40;91.00
27567;DHT22;15006;48.584;9.186;2022-12-18T03:14:25;-14.40;91.00
27567;DHT22;15006;48.584;9.186;2022-12-18T03:17:00;-14.40;90.90
27567;DHT22;15006;48.584;9.186;2022-12-18T03:19:29;-14.40;90.80
27567;DHT22;15006;48.584;9.186;2022-12-18T03:21:59;-14.40;90.70
27567;DHT22;15006;48.584;9.186;2022-12-18T03:24:27;-14.40;90.60
27567;DHT22;15006;48.584;9.186;2022-12-18T03:27:06;-14.50;90.40
27567;DHT22;15006;48.584;9.186;2022-12-18T03:29:39;-14.50;90.20
27567;DHT22;15006;48.584;9.186;2022-12-18T03:32:16;-14.60;90.00
27567;DHT22;15006;48.584;9.186;2022-12-18T03:34:58;-14.60;89.70
27567;DHT22;15006;48.584;9.186;2022-12-18T03:37:27;-14.70;89.80
27567;DHT22;15006;48.584;9.186;2022-12-18T03:39:53;-14.70;90.00
27567;DHT22;15006;48.584;9.186;2022-12-18T03:54:21;-14.80;90.40
27567;DHT22;15006;48.584;9.186;2022-12-18T03:56:29;-14.80;90.50
27567;DHT22;15006;48.584;9.186;2022-12-18T03:58:59;-14.80;90.40
27567;DHT22;15006;48.584;9.186;2022-12-18T04:01:37;-14.80;90.30
27567;DHT22;15006;48.584;9.186;2022-12-18T04:04:10;-14.90;90.20
27567;DHT22;15006;48.584;9.186;2022-12-18T04:06:38;-14.90;90.10
27567;DHT22;15006;48.584;9.186;2022-12-18T04:09:05;-14.90;89.90
27567;DHT22;15006;48.584;9.186;2022-12-18T04:11:31;-14.90;89.60
27567;DHT22;15006;48.584;9.186;2022-12-18T04:13:58;-15.00;89.40
27567;DHT22;15006;48.584;9.186;2022-12-18T04:16:27;-15.00;89.40
27567;DHT22;15006;48.584;9.186;2022-12-18T04:19:00;-15.10;89.40
27567;DHT22;15006;48.584;9.186;2022-12-18T04:21:27;-15.10;89.50
27567;DHT22;15006;48.584;9.186;2022-12-18T04:23:53;-15.10;89.60
27567;DHT22;15006;48.584;9.186;2022-12-18T04:26:19;-15.20;89.70
27567;DHT22;15006;48.584;9.186;2022-12-18T04:28:45;-15.20;90.00
27567;DHT22;15006;48.584;9.186;2022-12-18T04:31:12;-15.20;90.00
27567;DHT22;15006;48.584;9.186;2022-12-18T04:33:38;-15.20;90.10
27567;DHT22;15006;48.584;9.186;2022-12-18T04:36:04;-15.20;90.10
27567;DHT22;15006;48.584;9.186;2022-12-18T04:38:30;-15.20;90.00
27567;DHT22;15006;48.584;9.186;2022-12-18T04:40:56;-15.30;90.00
27567;DHT22;15006;48.584;9.186;2022-12-18T04:43:22;-15.30;89.80
27567;DHT22;15006;48.584;9.186;2022-12-18T04:45:48;-15.30;89.30
27567;DHT22;15006;48.584;9.186;2022-12-18T04:48:14;-15.40;88.90
27567;DHT22;15006;48.584;9.186;2022-12-18T04:50:40;-15.40;88.90
27567;DHT22;15006;48.584;9.186;2022-12-18T04:53:06;-15.40;89.10
27567;DHT22;15006;48.584;9.186;2022-12-18T04:55:32;-15.40;88.90
27567;DHT22;15006;48.584;9.186;2022-12-18T04:57:58;-15.50;88.60
27567;DHT22;15006;48.584;9.186;2022-12-18T05:00:24;-15.50;88.70
27567;DHT22;15006;48.584;9.186;2022-12-18T05:02:50;-15.50;89.00
27567;DHT22;15006;48.584;9.186;2022-12-18T05:05:16;-15.50;89.30
27567;DHT22;15006;48.584;9.186;2022-12-18T05:07:42;-15.60;89.20
27567;DHT22;15006;48.584;9.186;2022-12-18T05:10:09;-15.60;89.00
27567;DHT22;15006;48.584;9.186;2022-12-18T05:12:35;-15.60;89.00
27567;DHT22;15006;48.584;9.186;2022-12-18T05:15:21;-15.60;89.20
27567;DHT22;15006;48.584;9.186;2022-12-18T05:17:47;-15.60;89.50
27567;DHT22;15006;48.584;9.186;2022-12-18T05:20:13;-15.60;89.70
27567;DHT22;15006;48.584;9.186;2022-12-18T05:22:38;-15.60;89.60
27567;DHT22;15006;48.584;9.186;2022-12-18T05:25:05;-15.70;89.70
27567;DHT22;15006;48.584;9.186;2022-12-18T05:27:31;-15.70;89.80
27567;DHT22;15006;48.584;9.186;2022-12-18T05:29:57;-15.70;90.00
27567;DHT22;15006;48.584;9.186;2022-12-18T05:32:22;-15.70;90.00
27567;DHT22;15006;48.584;9.186;2022-12-18T05:34:48;-15.70;90.00
27567;DHT22;15006;48.584;9.186;2022-12-18T05:37:14;-15.70;89.90
27567;DHT22;15006;48.584;9.186;2022-12-18T05:39:40;-15.70;89.50
27567;DHT22;15006;48.584;9.186;2022-12-18T05:42:06;-15.70;89.20
27567;DHT22;15006;48.584;9.186;2022-12-18T05:44:32;-15.70;89.00
27567;DHT22;15006;48.584;9.186;2022-12-18T05:46:59;-15.70;88.90
27567;DHT22;15006;48.584;9.186;2022-12-18T05:49:25;-15.80;88.60
27567;DHT22;15006;48.584;9.186;2022-12-18T05:51:51;-15.80;88.20
27567;DHT22;15006;48.584;9.186;2022-12-18T05:54:17;-15.80;88.10
27567;DHT22;15006;48.584;9.186;2022-12-18T05:56:43;-15.90;88.00
27567;DHT22;15006;48.584;9.186;2022-12-18T05:59:09;-15.90;88.20
27567;DHT22;15006;48.584;9.186;2022-12-18T06:01:35;-15.90;88.40
27567;DHT22;15006;48.584;9.186;2022-12-18T06:04:01;-16.00;88.80
27567;DHT22;15006;48.584;9.186;2022-12-18T06:06:28;-16.00;89.10
27567;DHT22;15006;48.584;9.186;2022-12-18T06:08:55;-16.00;89.00
27567;DHT22;15006;48.584;9.186;2022-12-18T06:11:25;-16.00;89.00
27567;DHT22;15006;48.584;9.186;2022-12-18T06:13:55;-16.10;89.20
27567;DHT22;15006;48.584;9.186;2022-12-18T06:16:22;-16.00;89.60
27567;DHT22;15006;48.584;9.186;2022-12-18T06:18:48;-16.00;90.00
27567;DHT22;15006;48.584;9.186;2022-12-18T06:21:15;-16.00;90.10
27567;DHT22;15006;48.584;9.186;2022-12-18T06:23:41;-16.00;90.10
27567;DHT22;15006;48.584;9.186;2022-12-18T06:26:10;-16.00;90.00
27567;DHT22;15006;48.584;9.186;2022-12-18T06:28:37;-16.00;89.90
27567;DHT22;15006;48.584;9.186;2022-12-18T06:31:04;-16.00;89.80
27567;DHT22;15006;48.584;9.186;2022-12-18T06:33:31;-16.00;89.70
27567;DHT22;15006;48.584;9.186;2022-12-18T06:36:11;-16.00;89.60
27567;DHT22;15006;48.584;9.186;2022-12-18T06:38:41;-16.00;89.70
27567;DHT22;15006;48.584;9.186;2022-12-18T06:41:09;-16.00;89.70
27567;DHT22;15006;48.584;9.186;2022-12-18T06:43:36;-16.00;89.80
27567;DHT22;15006;48.584;9.186;2022-12-18T06:46:03;-16.00;89.60
27567;DHT22;15006;48.584;9.186;2022-12-18T06:48:30;-16.00;89.50
27567;DHT22;15006;48.584;9.186;2022-12-18T06:50:56;-16.00;89.40
27567;DHT22;15006;48.584;9.186;2022-12-18T06:53:22;-16.00;89.50
27567;DHT22;15006;48.584;9.186;2022-12-18T06:55:49;-16.00;89.70
27567;DHT22;15006;48.584;9.186;2022-12-18T06:58:15;-16.00;90.00
27567;DHT22;15006;48.584;9.186;2022-12-18T07:00:41;-16.00;90.00
27567;DHT22;15006;48.584;9.186;2022-12-18T07:03:07;-16.00;90.10
27567;DHT22;15006;48.584;9.186;2022-12-18T07:05:33;-16.00;90.10
27567;DHT22;15006;48.584;9.186;2022-12-18T07:07:59;-16.00;90.10
27567;DHT22;15006;48.584;9.186;2022-12-18T07:10:26;-15.90;90.10
27567;DHT22;15006;48.584;9.186;2022-12-18T07:12:52;-15.90;90.00
27567;DHT22;15006;48.584;9.186;2022-12-18T07:15:18;-15.90;90.00
27567;DHT22;15006;48.584;9.186;2022-12-18T07:17:44;-15.90;90.00
27567;DHT22;15006;48.584;9.186;2022-12-18T07:20:10;-15.90;89.60
27567;DHT22;15006;48.584;9.186;2022-12-18T07:22:36;-15.90;89.50
27567;DHT22;15006;48.584;9.186;2022-12-18T07:25:02;-15.90;89.40
27567;DHT22;15006;48.584;9.186;2022-12-18T07:27:28;-15.90;89.50
27567;DHT22;15006;48.584;9.186;2022-12-18T07:29:54;-15.90;89.60
27567;DHT22;15006;48.584;9.186;2022-12-18T07:32:20;-15.90;89.80
27567;DHT22;15006;48.584;9.186;2022-12-18T07:34:46;-15.90;90.00
27567;DHT22;15006;48.584;9.186;2022-12-18T07:37:12;-15.90;90.00
27567;DHT22;15006;48.584;9.186;2022-12-18T07:39:38;-15.90;90.00
27567;DHT22;15006;48.584;9.186;2022-12-18T07:42:07;-15.80;90.20
27567;DHT22;15006;48.584;9.186;2022-12-18T07:44:52;-15.80;90.30
27567;DHT22;15006;48.584;9.186;2022-12-18T07:47:17;-15.70;90.40
27567;DHT22;15006;48.584;9.186;2022-12-18T07:49:44;-15.70;90.50
27567;DHT22;15006;48.584;9.186;2022-12-18T07:52:10;-15.70;90.60
27567;DHT22;15006;48.584;9.186;2022-12-18T07:54:38;-15.60;90.80
27567;DHT22;15006;48.584;9.186;2022-12-18T07:57:04;-15.50;91.10
27567;DHT22;15006;48.584;9.186;2022-12-18T07:59:30;-15.40;91.30
27567;DHT22;15006;48.584;9.186;2022-12-18T08:01:56;-15.30;91.40
27567;DHT22;15006;48.584;9.186;2022-12-18T08:04:22;-15.30;91.50
27567;DHT22;15006;48.584;9.186;2022-12-18T08:06:48;-15.20;91.60
27567;DHT22;15006;48.584;9.186;2022-12-18T08:09:14;-15.10;91.60
27567;DHT22;15006;48.584;9.186;2022-12-18T08:11:40;-15.00;91.80
27567;DHT22;15006;48.584;9.186;2022-12-18T08:14:06;-14.90;91.90
27567;DHT22;15006;48.584;9.186;2022-12-18T08:16:32;-14.80;91.90
27567;DHT22;15006;48.584;9.186;2022-12-18T08:18:58;-14.70;91.80
27567;DHT22;15006;48.584;9.186;2022-12-18T08:21:27;-14.60;91.90
27567;DHT22;15006;48.584;9.186;2022-12-18T08:23:57;-14.60;91.90
27567;DHT22;15006;48.584;9.186;2022-12-18T08:26:26;-14.40;92.10
27567;DHT22;15006;48.584;9.186;2022-12-18T08:29:09;-14.30;92.20
27567;DHT22;15006;48.584;9.186;2022-12-18T08:31:52;-14.20;92.40
27567;DHT22;15006;48.584;9.186;2022-12-18T08:34:18;-14.10;92.50
27567;DHT22;15006;48.584;9.186;2022-12-18T08:36:44;-14.00;92.60
27567;DHT22;15006;48.584;9.186;2022-12-18T08:39:10;-13.90;92.70
27567;DHT22;15006;48.584;9.186;2022-12-18T08:41:36;-13.80;92.70
27567;DHT22;15006;48.584;9.186;2022-12-18T08:44:02;-13.70;92.70
27567;DHT22;15006;48.584;9.186;2022-12-18T08:46:47;-13.50;92.80
27567;DHT22;15006;48.584;9.186;2022-12-18T08:49:13;-13.40;93.10
27567;DHT22;15006;48.584;9.186;2022-12-18T08:51:39;-13.30;93.50
27567;DHT22;15006;48.584;9.186;2022-12-18T08:54:06;-13.00;94.10
27567;DHT22;15006;48.584;9.186;2022-12-18T08:56:32;-12.90;94.30
27567;DHT22;15006;48.584;9.186;2022-12-18T08:58:58;-12.60;94.60
27567;DHT22;15006;48.584;9.186;2022-12-18T09:01:24;-12.50;94.90
27567;DHT22;15006;48.584;9.186;2022-12-18T09:03:51;-12.30;94.80
27567;DHT22;15006;48.584;9.186;2022-12-18T09:06:18;-12.10;94.80
27567;DHT22;15006;48.584;9.186;2022-12-18T09:08:44;-11.90;94.80
27567;DHT22;15006;48.584;9.186;2022-12-18T09:11:22;-11.80;94.80
27567;DHT22;15006;48.584;9.186;2022-12-18T09:13:51;-11.70;94.20
27567;DHT22;15006;48.584;9.186;2022-12-18T09:16:17;-11.50;94.80
27567;DHT22;15006;48.584;9.186;2022-12-18T09:18:43;-11.40;95.30
27567;DHT22;15006;48.584;9.186;2022-12-18T09:21:16;-11.30;95.70
27567;DHT22;15006;48.584;9.186;2022-12-18T09:23:43;-11.10;95.60
27567;DHT22;15006;48.584;9.186;2022-12-18T09:26:09;-11.00;95.80
27567;DHT22;15006;48.584;9.186;2022-12-18T09:28:36;-10.90;95.80
27567;DHT22;15006;48.584;9.186;2022-12-18T09:31:07;-10.70;95.80
27567;DHT22;15006;48.584;9.186;2022-12-18T09:33:35;-10.60;95.70
27567;DHT22;15006;48.584;9.186;2022-12-18T09:36:05;-10.50;95.90
27567;DHT22;15006;48.584;9.186;2022-12-18T09:38:33;-10.30;95.80
27567;DHT22;15006;48.584;9.186;2022-12-18T09:44:19;-10.10;94.80
27567;DHT22;15006;48.584;9.186;2022-12-18T09:46:53;-9.90;94.90
27567;DHT22;15006;48.584;9.186;2022-12-18T09:49:23;-9.80;95.30
27567;DHT22;15006;48.584;9.186;2022-12-18T09:51:56;-9.70;95.60
27567;DHT22;15006;48.584;9.186;2022-12-18T09:54:32;-9.60;96.00
27567;DHT22;15006;48.584;9.186;2022-12-18T09:57:01;-9.40;96.30
27567;DHT22;15006;48.584;9.186;2022-12-18T09:59:37;-9.30;96.80
27567;DHT22;15006;48.584;9.186;2022-12-18T10:02:14;-9.10;96.60
27567;DHT22;15006;48.584;9.186;2022-12-18T10:04:42;-8.90;96.70
27567;DHT22;15006;48.584;9.186;2022-12-18T10:07:19;-8.70;97.20
27567;DHT22;15006;48.584;9.186;2022-12-18T10:10:33;-8.60;96.50
27567;DHT22;15006;48.584;9.186;2022-12-18T10:16:13;-8.30;96.30
27567;DHT22;15006;48.584;9.186;2022-12-18T10:19:21;-8.20;96.60
27567;DHT22;15006;48.584;9.186;2022-12-18T10:22:11;-8.00;95.60
27567;DHT22;15006;48.584;9.186;2022-12-18T10:27:53;-7.80;95.90
27567;DHT22;15006;48.584;9.186;2022-12-18T10:30:23;-7.70;96.60
27567;DHT22;15006;48.584;9.186;2022-12-18T10:33:03;-7.60;96.90
27567;DHT22;15006;48.584;9.186;2022-12-18T10:35:29;-7.50;96.60
27567;DHT22;15006;48.584;9.186;2022-12-18T10:40:28;-7.20;96.20
27567;DHT22;15006;48.584;9.186;2022-12-18T10:43:15;-7.10;96.70
27567;DHT22;15006;48.584;9.186;2022-12-18T10:45:43;-7.00;95.70
27567;DHT22;15006;48.584;9.186;2022-12-18T10:48:37;-6.90;96.90
27567;DHT22;15006;48.584;9.186;2022-12-18T10:51:08;-6.70;97.00
27567;DHT22;15006;48.584;9.186;2022-12-18T10:53:37;-6.60;96.40
27567;DHT22;15006;48.584;9.186;2022-12-18T10:56:04;-6.50;95.70
27567;DHT22;15006;48.584;9.186;2022-12-18T10:58:34;-6.40;95.70
27567;DHT22;15006;48.584;9.186;2022-12-18T11:03:45;-6.00;95.70
27567;DHT22;15006;48.584;9.186;2022-12-18T11:06:17;-5.70;98.20
27567;DHT22;15006;48.584;9.186;2022-12-18T11:09:21;-5.40;99.90
27567;DHT22;15006;48.584;9.186;2022-12-18T11:11:50;-4.80;98.60
27567;DHT22;15006;48.584;9.186;2022-12-18T11:14:31;-4.30;99.90
27567;DHT22;15006;48.584;9.186;2022-12-18T11:16:59;-3.70;99.90
27567;DHT22;15006;48.584;9.186;2022-12-18T11:19:34;-3.10;99.90
27567;DHT22;15006;48.584;9.186;2022-12-18T11:22:19;-2.40;99.90
27567;DHT22;15006;48.584;9.186;2022-12-18T11:27:56;-0.90;99.90
27567;DHT22;15006;48.584;9.186;2022-12-18T11:30:36;-0.20;99.90
27567;DHT22;15006;48.584;9.186;2022-12-18T11:33:19;0.60;99.90
27567;DHT22;15006;48.584;9.186;2022-12-18T11:35:53;1.30;99.90
27567;DHT22;15006;48.584;9.186;2022-12-18T11:38:36;1.90;99.90
27567;DHT22;15006;48.584;9.186;2022-12-18T11:43:55;3.20;99.90
27567;DHT22;15006;48.584;9.186;2022-12-18T11:46:37;3.80;99.90
27567;DHT22;15006;48.584;9.186;2022-12-18T11:49:22;4.30;98.30
27567;DHT22;15006;48.584;9.186;2022-12-18T11:52:02;4.80;97.40
27567;DHT22;15006;48.584;9.186;2022-12-18T11:54:41;5.20;95.50
27567;DHT22;15006;48.584;9.186;2022-12-18T11:57:24;5.60;99.90
27567;DHT22;15006;48.584;9.186;2022-12-18T12:00:12;5.90;91.80
27567;DHT22;15006;48.584;9.186;2022-12-18T12:05:49;6.50;87.60
27567;DHT22;15006;48.584;9.186;2022-12-18T12:12:29;6.80;82.80
27567;DHT22;15006;48.584;9.186;2022-12-18T12:18:24;6.90;84.40
27567;DHT22;15006;48.584;9.186;2022-12-18T12:21:39;6.70;77.90
27567;DHT22;15006;48.584;9.186;2022-12-18T12:30:26;6.30;84.30
27567;DHT22;15006;48.584;9.186;2022-12-18T12:36:08;5.70;74.60
27567;DHT22;15006;48.584;9.186;2022-12-18T12:38:47;5.40;75.60
27567;DHT22;15006;48.584;9.186;2022-12-18T12:41:20;5.00;77.40
27567;DHT22;15006;48.584;9.186;2022-12-18T12:44:14;4.60;76.00
27567;DHT22;15006;48.584;9.186;2022-12-18T12:46:42;4.20;75.80
27567;DHT22;15006;48.584;9.186;2022-12-18T12:49:13;4.00;78.90
27567;DHT22;15006;48.584;9.186;2022-12-18T12:51:45;3.70;78.10
27567;DHT22;15006;48.584;9.186;2022-12-18T12:54:21;3.50;80.10
27567;DHT22;15006;48.584;9.186;2022-12-18T12:57:05;3.30;79.50
27567;DHT22;15006;48.584;9.186;2022-12-18T13:00:05;3.00;77.10
27567;DHT22;15006;48.584;9.186;2022-12-18T13:08:12;2.50;81.20
27567;DHT22;15006;48.584;9.186;2022-12-18T13:10:52;2.40;82.40
27567;DHT22;15006;48.584;9.186;2022-12-18T13:13:54;2.30;82.90
27567;DHT22;15006;48.584;9.186;2022-12-18T13:16:25;2.10;79.00
27567;DHT22;15006;48.584;9.186;2022-12-18T13:18:57;2.00;82.20
27567;DHT22;15006;48.584;9.186;2022-12-18T13:21:33;1.90;82.70
27567;DHT22;15006;48.584;9.186;2022-12-18T13:24:21;1.80;81.70
27567;DHT22;15006;48.584;9.186;2022-12-18T13:26:52;1.80;80.40
27567;DHT22;15006;48.584;9.186;2022-12-18T13:29:42;1.70;85.10
27567;DHT22;15006;48.584;9.186;2022-12-18T13:32:25;1.60;80.00
27567;DHT22;15006;48.584;9.186;2022-12-18T13:35:55;1.50;80.60
27567;DHT22;15006;48.584;9.186;2022-12-18T13:38:00;1.40;80.60
27567;DHT22;15006;48.584;9.186;2022-12-18T13:45:50;1.20;82.10
27567;DHT22;15006;48.584;9.186;2022-12-18T13:48:32;1.10;84.70
27567;DHT22;15006;48.584;9.186;2022-12-18T13:51:10;1.00;84.60
27567;DHT22;15006;48.584;9.186;2022-12-18T13:53:42;0.90;82.70
27567;DHT22;15006;48.584;9.186;2022-12-18T13:56:15;0.80;84.80
27567;DHT22;15006;48.584;9.186;2022-12-18T14:01:56;0.60;82.80
27567;DHT22;15006;48.584;9.186;2022-12-18T14:04:26;0.50;84.20
27567;DHT22;15006;48.584;9.186;2022-12-18T14:07:03;0.50;87.00
27567;DHT22;15006;48.584;9.186;2022-12-18T14:09:36;0.40;85.30
27567;DHT22;15006;48.584;9.186;2022-12-18T14:12:06;0.40;86.50
27567;DHT22;15006;48.584;9.186;2022-12-18T14:14:52;0.30;86.20
27567;DHT22;15006;48.584;9.186;2022-12-18T14:17:18;0.20;85.70
27567;DHT22;15006;48.584;9.186;2022-12-18T14:19:47;0.10;86.20
27567;DHT22;15006;48.584;9.186;2022-12-18T14:22:25;0.00;85.00
27567;DHT22;15006;48.584;9.186;2022-12-18T14:25:16;-0.20;82.40
27567;DHT22;15006;48.584;9.186;2022-12-18T14:33:27;-0.70;84.60
27567;DHT22;15006;48.584;9.186;2022-12-18T14:36:03;-0.90;81.70
27567;DHT22;15006;48.584;9.186;2022-12-18T14:38:38;-1.10;83.60
27567;DHT22;15006;48.584;9.186;2022-12-18T14:41:06;-1.30;83.60
27567;DHT22;15006;48.584;9.186;2022-12-18T14:43:39;-1.50;85.30
27567;DHT22;15006;48.584;9.186;2022-12-18T14:46:35;-1.70;84.70
27567;DHT22;15006;48.584;9.186;2022-12-18T14:49:27;-1.90;82.20
27567;DHT22;15006;48.584;9.186;2022-12-18T14:51:57;-2.10;82.40
27567;DHT22;15006;48.584;9.186;2022-12-18T14:54:25;-2.30;84.70
27567;DHT22;15006;48.584;9.186;2022-12-18T15:00:07;-2.70;86.80
27567;DHT22;15006;48.584;9.186;2022-12-18T15:02:42;-2.90;86.70
27567;DHT22;15006;48.584;9.186;2022-12-18T15:05:20;-3.00;88.70
27567;DHT22;15006;48.584;9.186;2022-12-18T15:07:53;-3.20;87.20
27567;DHT22;15006;48.584;9.186;2022-12-18T15:20:48;-4.10;84.20
27567;DHT22;15006;48.584;9.186;2022-12-18T15:23:24;-4.30;87.00
27567;DHT22;15006;48.584;9.186;2022-12-18T15:25:57;-4.50;87.50
27567;DHT22;15006;48.584;9.186;2022-12-18T15:28:43;-4.70;87.10
27567;DHT22;15006;48.584;9.186;2022-12-18T15:34:26;-5.10;87.40
27567;DHT22;15006;48.584;9.186;2022-12-18T15:36:38;-5.30;87.30
27567;DHT22;15006;48.584;9.186;2022-12-18T15:39:04;-5.50;87.10
27567;DHT22;15006;48.584;9.186;2022-12-18T15:41:32;-5.60;87.20
27567;DHT22;15006;48.584;9.186;2022-12-18T15:44:00;-5.90;87.30
27567;DHT22;15006;48.584;9.186;2022-12-18T15:46:26;-6.00;87.20
27567;DHT22;15006;48.584;9.186;2022-12-18T15:48:54;-6.20;87.00
27567;DHT22;15006;48.584;9.186;2022-12-18T15:51:33;-6.30;86.70
27567;DHT22;15006;48.584;9.186;2022-12-18T15:54:06;-6.50;86.30
27567;DHT22;15006;48.584;9.186;2022-12-18T15:56:36;-6.60;86.50
27567;DHT22;15006;48.584;9.186;2022-12-18T15:59:22;-6.80;87.20
27567;DHT22;15006;48.584;9.186;2022-12-18T16:01:50;-6.90;87.20
27567;DHT22;15006;48.584;9.186;2022-12-18T16:04:19;-7.10;87.60
27567;DHT22;15006;48.584;9.186;2022-12-18T16:06:47;-7.20;87.40
27567;DHT22;15006;48.584;9.186;2022-12-18T16:09:14;-7.30;87.90
27567;DHT22;15006;48.584;9.186;2022-12-18T16:11:42;-7.40;88.20
27567;DHT22;15006;48.584;9.186;2022-12-18T16:14:19;-7.50;88.40
27567;DHT22;15006;48.584;9.186;2022-12-18T16:16:51;-7.60;88.60
27567;DHT22;15006;48.584;9.186;2022-12-18T16:19:19;-7.70;89.10
27567;DHT22;15006;48.584;9.186;2022-12-18T16:21:47;-7.80;89.40
27567;DHT22;15006;48.584;9.186;2022-12-18T16:24:29;-7.80;89.60
27567;DHT22;15006;48.584;9.186;2022-12-18T16:26:58;-7.90;89.70
27567;DHT22;15006;48.584;9.186;2022-12-18T16:29:27;-8.00;90.20
27567;DHT22;15006;48.584;9.186;2022-12-18T16:31:59;-8.00;90.60
27567;DHT22;15006;48.584;9.186;2022-12-18T16:34:31;-8.10;90.80
27567;DHT22;15006;48.584;9.186;2022-12-18T16:37:01;-8.10;91.10
27567;DHT22;15006;48.584;9.186;2022-12-18T16:39:29;-8.10;91.40
27567;DHT22;15006;48.584;9.186;2022-12-18T16:41:56;-8.10;91.50
27567;DHT22;15006;48.584;9.186;2022-12-18T16:44:22;-8.10;91.70
27567;DHT22;15006;48.584;9.186;2022-12-18T16:46:48;-8.10;91.90
27567;DHT22;15006;48.584;9.186;2022-12-18T16:49:16;-8.10;92.00
27567;DHT22;15006;48.584;9.186;2022-12-18T16:51:43;-8.10;92.10
27567;DHT22;15006;48.584;9.186;2022-12-18T16:54:11;-8.10;92.20
27567;DHT22;15006;48.584;9.186;2022-12-18T16:56:37;-8.10;92.40
27567;DHT22;15006;48.584;9.186;2022-12-18T16:59:04;-8.00;92.50
27567;DHT22;15006;48.584;9.186;2022-12-18T17:01:31;-8.00;92.70
27567;DHT22;15006;48.584;9.186;2022-12-18T17:04:00;-8.00;92.90
27567;DHT22;15006;48.584;9.186;2022-12-18T17:06:30;-8.00;93.10
27567;DHT22;15006;48.584;9.186;2022-12-18T17:08:58;-8.00;93.20
27567;DHT22;15006;48.584;9.186;2022-12-18T17:11:27;-7.90;93.50
27567;DHT22;15006;48.584;9.186;2022-12-18T17:13:54;-7.90;94.10
27567;DHT22;15006;48.584;9.186;2022-12-18T17:16:22;-7.80;94.70
27567;DHT22;15006;48.584;9.186;2022-12-18T17:18:48;-7.70;95.30
27567;DHT22;15006;48.584;9.186;2022-12-18T17:21:16;-7.70;95.90
27567;DHT22;15006;48.584;9.186;2022-12-18T17:23:43;-7.60;96.20
27567;DHT22;15006;48.584;9.186;2022-12-18T17:26:10;-7.50;96.60
27567;DHT22;15006;48.584;9.186;2022-12-18T17:28:38;-7.40;96.80
27567;DHT22;15006;48.584;9.186;2022-12-18T17:31:17;-7.30;96.90
27567;DHT22;15006;48.584;9.186;2022-12-18T17:33:45;-7.20;96.70